createdAt,value
2023-05-14T00:00:52.231Z,6.50
2023-05-14T00:03:19.357Z,6.70
2023-05-14T00:05:46.516Z,6.57
2023-05-14T00:08:13.596Z,6.30
2023-05-14T00:10:40.737Z,7.45
2023-05-14T00:13:07.786Z,8.20
2023-05-14T00:15:34.892Z,7.10
2023-05-14T00:18:02.045Z,7.47
2023-05-14T00:20:29.105Z,7.70
2023-05-14T00:22:56.419Z,7.07
2023-05-14T00:25:23.614Z,8.52
2023-05-14T00:27:50.749Z,7.45
2023-05-14T00:30:17.842Z,8.00
2023-05-14T00:32:44.920Z,7.07
2023-05-14T00:35:12.208Z,7.38
2023-05-14T00:37:39.678Z,8.15
2023-05-14T00:40:08.473Z,7.10
2023-05-14T00:42:35.672Z,8.05
2023-05-14T00:45:02.756Z,6.57
2023-05-14T00:47:29.921Z,7.72
2023-05-14T00:49:56.999Z,6.85
2023-05-14T00:52:24.161Z,6.90
2023-05-14T00:54:51.515Z,7.45
2023-05-14T00:57:19.319Z,7.63
2023-05-14T00:59:46.419Z,7.60
2023-05-14T01:02:13.501Z,8.02
2023-05-14T01:04:40.745Z,7.72
2023-05-14T01:07:10.779Z,7.25
2023-05-14T01:09:40.970Z,7.13
2023-05-14T01:12:20.065Z,8.20
2023-05-14T01:15:02.721Z,7.30
2023-05-14T01:17:30.427Z,7.28
2023-05-14T01:19:57.773Z,7.43
2023-05-14T01:22:24.835Z,7.10
2023-05-14T01:24:51.969Z,7.85
2023-05-14T01:27:24.127Z,7.05
2023-05-14T01:29:56.000Z,7.90
2023-05-14T01:32:24.554Z,7.97
2023-05-14T01:34:51.721Z,7.38
2023-05-14T01:37:19.048Z,8.07
2023-05-14T01:39:46.560Z,6.63
2023-05-14T01:42:14.041Z,7.47
2023-05-14T01:44:41.378Z,7.15
2023-05-14T01:47:08.487Z,8.15
2023-05-14T01:49:37.144Z,7.35
2023-05-14T01:52:04.310Z,8.52
2023-05-14T01:54:31.389Z,7.03
2023-05-14T01:56:58.575Z,8.40
2023-05-14T01:59:25.766Z,8.60
2023-05-14T02:01:52.976Z,7.90
2023-05-14T02:04:20.750Z,7.43
2023-05-14T02:06:47.866Z,8.27
2023-05-14T02:09:14.896Z,8.80
2023-05-14T02:11:41.938Z,7.60
2023-05-14T02:14:09.027Z,6.60
2023-05-14T02:16:36.089Z,8.38
2023-05-14T02:19:03.237Z,7.95
2023-05-14T02:21:30.734Z,8.15
2023-05-14T02:23:57.871Z,8.65
2023-05-14T02:26:25.041Z,9.00
2023-05-14T02:28:52.133Z,8.52
2023-05-14T02:31:19.510Z,9.27
2023-05-14T02:33:46.666Z,9.45
2023-05-14T02:36:13.772Z,9.23
2023-05-14T02:38:40.891Z,9.57
2023-05-14T02:41:07.969Z,8.07
2023-05-14T02:43:35.056Z,9.15
2023-05-14T02:46:02.146Z,9.35
2023-05-14T02:48:29.428Z,9.63
2023-05-14T02:50:56.523Z,8.55
2023-05-14T02:53:23.578Z,9.23
2023-05-14T02:55:50.688Z,9.30
2023-05-14T02:58:17.814Z,9.63
2023-05-14T03:00:44.937Z,10.00
2023-05-14T03:03:12.374Z,8.80
2023-05-14T03:05:39.980Z,10.02
2023-05-14T03:08:07.247Z,8.32
2023-05-14T03:10:34.346Z,10.30
2023-05-14T03:13:01.492Z,10.07
2023-05-14T03:15:28.633Z,10.88
2023-05-14T03:17:55.739Z,11.00
2023-05-14T03:20:24.845Z,10.02
2023-05-14T03:22:52.247Z,10.20
2023-05-14T03:25:19.337Z,9.85
2023-05-14T03:27:46.465Z,10.13
2023-05-14T03:30:13.664Z,11.57
2023-05-14T03:32:41.380Z,11.07
2023-05-14T03:35:08.668Z,11.10
2023-05-14T03:37:35.712Z,10.02
2023-05-14T03:40:02.767Z,10.50
2023-05-14T03:42:29.838Z,10.15
2023-05-14T03:44:56.927Z,10.55
2023-05-14T03:47:24.058Z,10.43
2023-05-14T03:49:51.406Z,8.82
2023-05-14T03:52:18.514Z,9.77
2023-05-14T03:54:45.533Z,9.75
2023-05-14T03:57:12.567Z,9.95
2023-05-14T03:59:39.639Z,10.27
2023-05-14T04:02:07.957Z,9.73
2023-05-14T04:04:35.172Z,9.55
2023-05-14T04:07:02.267Z,9.43
2023-05-14T04:09:29.348Z,9.52
2023-05-14T04:11:56.391Z,10.45
2023-05-14T04:14:23.424Z,9.50
2023-05-14T04:16:50.452Z,9.73
2023-05-14T04:19:17.669Z,10.35
2023-05-14T04:21:45.297Z,10.50
2023-05-14T04:24:12.381Z,9.55
2023-05-14T04:26:39.419Z,9.88
2023-05-14T04:29:06.533Z,10.90
2023-05-14T04:31:33.811Z,9.00
2023-05-14T04:34:01.060Z,10.23
2023-05-14T04:36:28.191Z,8.43
2023-05-14T04:38:55.930Z,10.02
2023-05-14T04:41:22.984Z,10.25
2023-05-14T04:43:50.762Z,9.82
2023-05-14T04:46:17.873Z,9.88
2023-05-14T04:48:45.008Z,11.00
2023-05-14T04:51:12.267Z,9.10
2023-05-14T04:53:39.360Z,9.75
2023-05-14T04:56:06.630Z,9.80
2023-05-14T04:58:35.083Z,11.35
2023-05-14T05:01:03.491Z,10.10
2023-05-14T05:03:31.207Z,9.80
2023-05-14T05:05:58.417Z,9.65
2023-05-14T05:08:25.520Z,9.40
2023-05-14T05:10:52.669Z,9.90
2023-05-14T05:13:19.749Z,9.13
2023-05-14T05:15:46.887Z,7.78
2023-05-14T05:18:14.203Z,8.50
2023-05-14T05:20:41.298Z,8.10
2023-05-14T05:23:08.396Z,6.78
2023-05-14T05:25:35.614Z,6.88
2023-05-14T05:28:02.730Z,6.18
2023-05-14T05:30:30.310Z,5.50
2023-05-14T05:32:57.673Z,6.00
2023-05-14T05:35:24.851Z,4.90
2023-05-14T05:37:52.067Z,4.45
2023-05-14T05:40:19.133Z,6.03
2023-05-14T05:42:46.226Z,4.35
2023-05-14T05:45:13.302Z,4.95
2023-05-14T05:47:40.772Z,4.50
2023-05-14T05:50:08.147Z,4.40
2023-05-14T05:52:35.262Z,4.38
2023-05-14T05:55:02.388Z,3.63
2023-05-14T05:57:29.764Z,3.72
2023-05-14T05:59:56.917Z,4.05
2023-05-14T06:02:25.223Z,3.65
2023-05-14T06:04:53.244Z,4.32
2023-05-14T06:07:20.371Z,4.18
2023-05-14T06:09:47.454Z,4.82
2023-05-14T06:12:14.584Z,3.63
2023-05-14T06:14:41.775Z,3.72
2023-05-14T06:17:09.006Z,4.22
2023-05-14T06:19:36.091Z,4.25
2023-05-14T06:22:03.152Z,4.20
2023-05-14T06:24:30.327Z,4.07
2023-05-14T06:26:57.462Z,3.90
2023-05-14T06:29:24.588Z,4.03
2023-05-14T06:31:51.745Z,3.78
2023-05-14T06:34:18.815Z,3.83
2023-05-14T06:36:45.861Z,4.13
2023-05-14T06:39:13.029Z,4.18
2023-05-14T06:41:40.183Z,4.07
2023-05-14T06:44:07.340Z,4.10
2023-05-14T06:46:34.491Z,3.75
2023-05-14T06:49:01.655Z,4.32
2023-05-14T06:51:28.814Z,4.75
2023-05-14T06:53:56.475Z,3.40
2023-05-14T06:56:23.737Z,3.85
2023-05-14T06:58:51.119Z,3.85
2023-05-14T07:01:18.237Z,4.00
2023-05-14T07:03:45.343Z,4.60
2023-05-14T07:06:13.668Z,4.13
2023-05-14T07:08:40.900Z,4.10
2023-05-14T07:11:07.940Z,3.78
2023-05-14T07:13:35.054Z,4.20
2023-05-14T07:16:02.140Z,4.28
2023-05-14T07:18:29.277Z,3.58
2023-05-14T07:20:56.355Z,4.43
2023-05-14T07:23:23.477Z,3.80
2023-05-14T07:25:50.580Z,3.88
2023-05-14T07:28:17.747Z,4.05
2023-05-14T07:30:44.837Z,4.07
2023-05-14T07:33:12.009Z,4.35
2023-05-14T07:35:39.207Z,4.53
2023-05-14T07:38:06.377Z,4.00
2023-05-14T07:40:33.519Z,4.65
2023-05-14T07:43:00.668Z,4.10
2023-05-14T07:45:27.788Z,4.25
2023-05-14T07:47:54.859Z,4.00
2023-05-14T07:50:22.300Z,4.15
2023-05-14T07:52:49.528Z,4.00
2023-05-14T07:55:16.955Z,4.18
2023-05-14T07:57:44.074Z,3.70
2023-05-14T08:00:12.231Z,4.40
2023-05-14T08:02:39.439Z,3.85
2023-05-14T08:05:06.789Z,3.70
2023-05-14T08:07:33.938Z,3.63
2023-05-14T08:10:01.054Z,3.85
2023-05-14T08:12:29.579Z,3.55
2023-05-14T08:14:56.720Z,2.90
2023-05-14T08:17:23.837Z,3.17
2023-05-14T08:19:50.897Z,3.50
2023-05-14T08:22:17.956Z,2.90
2023-05-14T08:24:45.110Z,2.90
2023-05-14T08:27:12.229Z,3.50
2023-05-14T08:29:39.570Z,3.15
2023-05-14T08:32:19.374Z,3.40
2023-05-14T08:34:50.808Z,2.22
2023-05-14T08:37:18.015Z,2.55
2023-05-14T08:39:45.282Z,3.22
2023-05-14T08:42:13.508Z,3.03
2023-05-14T08:44:46.269Z,3.15
2023-05-14T08:47:16.205Z,3.15
2023-05-14T08:49:44.984Z,2.60
2023-05-14T08:52:12.691Z,2.95
2023-05-14T08:54:40.696Z,3.17
2023-05-14T08:57:09.915Z,3.55
2023-05-14T08:59:37.271Z,2.75
2023-05-14T09:02:06.369Z,2.63
2023-05-14T09:04:34.698Z,3.30
2023-05-14T09:07:02.825Z,3.10
2023-05-14T09:09:30.367Z,3.10
2023-05-14T09:11:57.505Z,3.08
2023-05-14T09:14:24.633Z,3.05
2023-05-14T09:16:52.361Z,2.92
2023-05-14T09:19:20.008Z,2.97
2023-05-14T09:21:47.866Z,2.88
2023-05-14T09:24:25.367Z,3.28
2023-05-14T09:26:57.064Z,2.85
2023-05-14T09:29:28.117Z,3.00
2023-05-14T09:31:56.195Z,2.83
2023-05-14T09:34:26.298Z,3.08
2023-05-14T09:37:03.743Z,3.33
2023-05-14T09:39:31.465Z,3.08
2023-05-14T09:41:59.006Z,3.13
2023-05-14T09:44:26.393Z,3.30
2023-05-14T09:46:54.407Z,3.92
2023-05-14T09:49:21.754Z,3.15
2023-05-14T09:51:52.194Z,3.03
2023-05-14T09:54:19.430Z,3.00
2023-05-14T09:56:46.607Z,3.53
2023-05-14T09:59:14.117Z,2.92
2023-05-14T10:01:43.595Z,3.28
2023-05-14T10:04:11.799Z,2.42
2023-05-14T10:06:39.491Z,3.20
2023-05-14T10:09:12.068Z,3.10
2023-05-14T10:11:39.792Z,3.03
2023-05-14T10:14:18.218Z,2.75
2023-05-14T10:16:49.527Z,3.15
2023-05-14T10:19:17.864Z,3.45
2023-05-14T10:21:46.150Z,2.95
2023-05-14T10:24:13.453Z,3.05
2023-05-14T10:26:41.952Z,2.97
2023-05-14T10:29:12.273Z,3.13
2023-05-14T10:31:54.048Z,3.83
2023-05-14T10:34:40.864Z,2.53
2023-05-14T10:37:09.991Z,2.67
2023-05-14T10:39:44.200Z,2.70
2023-05-14T10:42:12.475Z,3.40
2023-05-14T10:44:46.882Z,2.78
2023-05-14T10:47:14.715Z,2.80
2023-05-14T10:49:43.794Z,2.95
2023-05-14T10:52:11.711Z,2.90
2023-05-14T10:54:38.975Z,2.70
2023-05-14T10:57:10.943Z,2.88
2023-05-14T10:59:38.063Z,2.85
2023-05-14T11:02:19.425Z,2.50
2023-05-14T11:05:06.440Z,2.75
2023-05-14T11:07:34.719Z,2.65
2023-05-14T11:10:05.992Z,2.80
2023-05-14T11:12:37.264Z,2.40
2023-05-14T11:15:09.482Z,2.78
2023-05-14T11:17:37.238Z,2.15
2023-05-14T11:20:08.074Z,2.17
2023-05-14T11:22:35.898Z,1.92
2023-05-14T11:25:03.249Z,2.38
2023-05-14T11:27:31.341Z,2.40
2023-05-14T11:30:00.866Z,2.58
2023-05-14T11:32:28.172Z,2.00
2023-05-14T11:34:55.910Z,2.33
2023-05-14T11:37:23.004Z,2.08
2023-05-14T11:39:54.050Z,2.15
2023-05-14T11:42:22.353Z,2.17
2023-05-14T11:44:50.311Z,2.03
2023-05-14T11:47:18.441Z,2.40
2023-05-14T11:49:45.926Z,2.50
2023-05-14T11:52:14.708Z,2.47
2023-05-14T11:54:42.681Z,1.92
2023-05-14T11:57:13.513Z,2.00
2023-05-14T12:02:11.684Z,1.90
2023-05-14T12:04:39.429Z,1.88
2023-05-14T12:07:13.636Z,1.60
2023-05-14T12:09:44.190Z,1.55
2023-05-14T12:12:12.969Z,1.60
2023-05-14T12:14:42.516Z,1.55
2023-05-14T12:17:27.778Z,1.77
2023-05-14T12:19:56.379Z,1.98
2023-05-14T12:22:24.264Z,1.60
2023-05-14T12:24:58.120Z,1.35
2023-05-14T12:27:26.461Z,1.73
2023-05-14T12:30:20.100Z,1.65
2023-05-14T12:32:52.975Z,2.05
2023-05-14T12:35:22.744Z,1.80
2023-05-14T12:37:50.132Z,1.52
2023-05-14T12:40:17.254Z,2.40
2023-05-14T12:42:44.356Z,1.80
2023-05-14T12:45:11.846Z,2.22
2023-05-14T12:47:39.144Z,1.98
2023-05-14T12:50:06.593Z,1.80
2023-05-14T12:52:38.501Z,1.92
2023-05-14T12:55:07.550Z,2.15
2023-05-14T12:57:35.402Z,2.30
2023-05-14T13:00:06.344Z,1.80
2023-05-14T13:02:33.615Z,2.00
2023-05-14T13:05:13.655Z,1.52
2023-05-14T13:07:41.443Z,1.42
2023-05-14T13:10:09.157Z,1.90
2023-05-14T13:12:36.542Z,1.55
2023-05-14T13:15:03.990Z,1.73
2023-05-14T13:17:31.141Z,1.60
2023-05-14T13:19:58.342Z,1.40
2023-05-14T13:22:25.460Z,1.50
2023-05-14T13:24:52.512Z,1.50
2023-05-14T13:27:19.543Z,1.60
2023-05-14T13:29:46.583Z,2.10
2023-05-14T13:32:13.647Z,1.75
2023-05-14T13:34:40.759Z,2.00
2023-05-14T13:37:07.886Z,1.60
2023-05-14T13:39:34.981Z,1.55
2023-05-14T13:42:02.118Z,1.65
2023-05-14T13:44:29.386Z,2.10
2023-05-14T13:46:56.434Z,1.80
2023-05-14T13:49:23.666Z,1.73
2023-05-14T13:51:50.832Z,1.77
2023-05-14T13:54:18.596Z,1.55
2023-05-14T13:56:45.857Z,1.73
2023-05-14T13:59:13.068Z,1.60
2023-05-14T14:01:40.319Z,1.60
2023-05-14T14:04:07.396Z,1.65
2023-05-14T14:06:34.540Z,1.77
2023-05-14T14:09:01.750Z,1.70
2023-05-14T14:11:28.831Z,1.63
2023-05-14T14:13:55.956Z,1.67
2023-05-14T14:16:23.149Z,1.80
2023-05-14T14:18:50.327Z,2.00
2023-05-14T14:21:18.491Z,1.60
2023-05-14T14:23:48.657Z,2.22
2023-05-14T14:26:15.811Z,2.50
2023-05-14T14:28:43.021Z,2.20
2023-05-14T14:31:10.229Z,1.90
2023-05-14T14:33:37.284Z,1.42
2023-05-14T14:36:04.579Z,1.60
2023-05-14T14:38:31.667Z,1.77
2023-05-14T14:40:58.990Z,1.58
2023-05-14T14:43:26.057Z,1.88
2023-05-14T14:45:53.157Z,1.77
2023-05-14T14:48:41.115Z,1.38
2023-05-14T14:51:08.594Z,1.80
2023-05-14T14:53:36.952Z,1.92
2023-05-14T14:56:04.126Z,2.00
2023-05-14T14:58:31.244Z,1.80
2023-05-14T15:00:58.635Z,1.98
2023-05-14T15:03:26.834Z,2.13
2023-05-14T15:05:54.334Z,1.63
2023-05-14T15:08:25.307Z,1.92
2023-05-14T15:10:52.406Z,1.60
2023-05-14T15:13:19.867Z,1.95
2023-05-14T15:15:47.355Z,2.00
2023-05-14T15:18:14.462Z,1.88
2023-05-14T15:20:41.602Z,2.00
2023-05-14T15:23:08.709Z,2.15
2023-05-14T15:25:35.842Z,2.13
2023-05-14T15:28:02.991Z,1.83
2023-05-14T15:30:30.933Z,1.88
2023-05-14T15:32:58.085Z,1.70
2023-05-14T15:35:25.572Z,1.83
2023-05-14T15:37:56.246Z,1.50
2023-05-14T15:40:23.730Z,1.87
2023-05-14T15:42:50.967Z,2.08
2023-05-14T15:45:18.077Z,1.92
2023-05-14T15:47:45.385Z,1.58
2023-05-14T15:50:12.623Z,2.03
2023-05-14T15:52:41.471Z,1.80
2023-05-14T15:55:08.927Z,1.92
2023-05-14T15:57:36.039Z,1.83
2023-05-14T16:00:12.863Z,1.65
2023-05-14T16:02:40.202Z,1.92
2023-05-14T16:05:08.554Z,1.73
2023-05-14T16:07:35.853Z,1.67
2023-05-14T16:10:03.326Z,1.50
2023-05-14T16:12:30.526Z,1.48
2023-05-14T16:14:57.730Z,2.03
2023-05-14T16:17:25.078Z,2.00
2023-05-14T16:19:54.600Z,1.52
2023-05-14T16:22:23.047Z,1.88
2023-05-14T16:24:50.091Z,1.80
2023-05-14T16:27:19.144Z,1.65
2023-05-14T16:29:46.279Z,1.80
2023-05-14T16:32:13.455Z,1.85
2023-05-14T16:34:40.752Z,1.58
2023-05-14T16:37:08.237Z,1.52
2023-05-14T16:39:35.462Z,1.70
2023-05-14T16:42:02.618Z,1.90
2023-05-14T16:44:29.692Z,1.70
2023-05-14T16:46:56.868Z,1.70
2023-05-14T16:49:24.154Z,1.58
2023-05-14T16:51:51.204Z,1.85
2023-05-14T16:54:18.273Z,1.42
2023-05-14T16:56:48.445Z,1.80
2023-05-14T16:59:16.201Z,2.20
2023-05-14T17:01:43.910Z,1.65
2023-05-14T17:04:11.281Z,1.52
2023-05-14T17:06:38.462Z,1.65
2023-05-14T17:09:06.882Z,1.85
2023-05-14T17:11:34.087Z,1.80
2023-05-14T17:14:01.288Z,1.45
2023-05-14T17:16:28.831Z,1.58
2023-05-14T17:18:56.065Z,1.58
2023-05-14T17:21:23.162Z,1.65
2023-05-14T17:23:50.300Z,2.13
2023-05-14T17:26:17.490Z,2.05
2023-05-14T17:28:44.571Z,2.20
2023-05-14T17:31:11.746Z,1.75
2023-05-14T17:33:39.223Z,2.03
2023-05-14T17:36:06.522Z,2.10
2023-05-14T17:38:34.599Z,2.15
2023-05-14T17:41:02.190Z,1.80
2023-05-14T17:43:29.403Z,1.77
2023-05-14T17:45:56.573Z,2.35
2023-05-14T17:48:24.103Z,2.13
2023-05-14T17:50:51.777Z,2.20
2023-05-14T17:53:18.974Z,2.30
2023-05-14T17:55:46.564Z,1.85
2023-05-14T17:58:15.668Z,2.10
2023-05-14T18:00:43.838Z,3.65
2023-05-14T18:03:11.376Z,4.20
2023-05-14T18:05:38.822Z,4.22
2023-05-14T18:08:06.131Z,4.53
2023-05-14T18:10:33.401Z,5.85
2023-05-14T18:13:00.620Z,5.30
2023-05-14T18:15:27.728Z,5.53
2023-05-14T18:17:55.032Z,5.30
2023-05-14T18:20:22.271Z,5.57
2023-05-14T18:22:50.675Z,5.47
2023-05-14T18:25:17.884Z,6.57
2023-05-14T18:27:45.487Z,6.85
2023-05-14T18:30:14.425Z,6.22
2023-05-14T18:32:42.361Z,6.57
2023-05-14T18:35:09.637Z,6.32
2023-05-14T18:37:36.818Z,7.15
2023-05-14T18:40:07.193Z,6.30
2023-05-14T18:42:34.592Z,7.45
2023-05-14T18:45:01.797Z,7.00
2023-05-14T18:47:28.955Z,6.82
2023-05-14T18:49:59.035Z,6.82
2023-05-14T18:52:26.529Z,8.00
2023-05-14T18:54:54.643Z,7.25
2023-05-14T18:57:22.119Z,7.75
2023-05-14T18:59:49.225Z,7.60
2023-05-14T19:02:16.634Z,7.75
2023-05-14T19:04:52.487Z,8.45
2023-05-14T19:07:20.563Z,8.65
2023-05-14T19:09:47.801Z,8.63
2023-05-14T19:12:15.361Z,8.70
2023-05-14T19:14:42.509Z,8.43
2023-05-14T19:17:09.669Z,9.07
2023-05-14T19:19:37.680Z,8.38
2023-05-14T19:22:04.803Z,9.25
2023-05-14T19:24:32.148Z,8.85
2023-05-14T19:26:59.304Z,9.02
2023-05-14T19:29:26.397Z,8.32
2023-05-14T19:31:53.539Z,8.95
2023-05-14T19:34:20.654Z,8.35
2023-05-14T19:36:47.781Z,8.15
2023-05-14T19:39:14.852Z,8.27
2023-05-14T19:41:41.986Z,9.38
2023-05-14T19:44:09.194Z,8.57
2023-05-14T19:46:36.419Z,8.60
2023-05-14T19:49:03.519Z,8.13
2023-05-14T19:51:30.807Z,9.68
2023-05-14T19:53:57.947Z,8.63
2023-05-14T19:56:27.099Z,9.60
2023-05-14T19:58:54.780Z,9.38
2023-05-14T20:01:22.011Z,8.98
2023-05-14T20:03:49.280Z,9.52
2023-05-14T20:06:17.399Z,10.07
2023-05-14T20:08:45.410Z,9.85
2023-05-14T20:11:12.671Z,10.23
2023-05-14T20:13:39.748Z,9.63
2023-05-14T20:16:06.849Z,9.43
2023-05-14T20:18:33.970Z,10.35
2023-05-14T20:21:01.233Z,9.70
2023-05-14T20:23:28.428Z,9.65
2023-05-14T20:25:55.727Z,11.20
2023-05-14T20:28:22.846Z,11.25
2023-05-14T20:30:50.064Z,11.45
2023-05-14T20:33:17.378Z,10.80
2023-05-14T20:35:44.706Z,10.60
2023-05-14T20:38:13.338Z,12.18
2023-05-14T20:40:40.613Z,10.75
2023-05-14T20:43:07.691Z,11.40
2023-05-14T20:45:34.859Z,11.27
2023-05-14T20:48:01.981Z,10.85
2023-05-14T20:50:29.134Z,12.43
2023-05-14T20:52:56.604Z,11.70
2023-05-14T20:55:23.959Z,11.95
2023-05-14T20:57:51.313Z,11.57
2023-05-14T21:00:18.590Z,12.00
2023-05-14T21:02:45.890Z,12.10
2023-05-14T21:05:13.920Z,12.65
2023-05-14T21:07:41.034Z,12.43
2023-05-14T21:10:09.716Z,12.52
2023-05-14T21:12:36.930Z,11.57
2023-05-14T21:15:04.403Z,12.60
2023-05-14T21:17:31.531Z,13.07
2023-05-14T21:19:58.659Z,12.05
2023-05-14T21:22:25.840Z,13.27
2023-05-14T21:24:52.961Z,13.48
2023-05-14T21:27:20.071Z,13.35
2023-05-14T21:29:47.262Z,13.10
2023-05-14T21:32:14.401Z,13.00
2023-05-14T21:34:41.537Z,13.77
2023-05-14T21:37:08.653Z,12.70
2023-05-14T21:39:35.725Z,13.35
2023-05-14T21:42:02.759Z,12.75
2023-05-14T21:44:29.916Z,12.82
2023-05-14T21:46:58.341Z,13.73
2023-05-14T21:49:25.454Z,13.07
2023-05-14T21:51:54.430Z,13.43
2023-05-14T21:54:21.632Z,13.75
2023-05-14T21:56:48.872Z,13.70
2023-05-14T21:59:16.107Z,13.07
2023-05-14T22:04:13.597Z,12.40
2023-05-14T22:06:41.186Z,12.32
2023-05-14T22:09:11.268Z,13.05
2023-05-14T22:11:38.487Z,12.00
2023-05-14T22:14:05.566Z,12.88
2023-05-14T22:16:33.304Z,12.73
2023-05-14T22:19:00.544Z,13.00
2023-05-14T22:21:27.668Z,11.90
2023-05-14T22:23:54.724Z,12.98
2023-05-14T22:26:21.842Z,13.40
2023-05-14T22:28:49.582Z,13.43
2023-05-14T22:31:16.750Z,11.88
2023-05-14T22:33:43.884Z,13.15
2023-05-14T22:36:10.921Z,12.48
2023-05-14T22:38:38.314Z,13.45
2023-05-14T22:41:05.424Z,14.15
2023-05-14T22:43:32.512Z,12.65
2023-05-14T22:45:59.951Z,14.40
2023-05-14T22:48:27.054Z,14.07
2023-05-14T22:50:54.216Z,12.93
2023-05-14T22:53:21.326Z,14.40
2023-05-14T22:55:48.402Z,14.88
2023-05-14T22:58:15.578Z,13.80
2023-05-14T23:00:42.654Z,13.55
2023-05-14T23:03:09.829Z,14.35
2023-05-14T23:05:36.931Z,13.93
2023-05-14T23:08:04.062Z,14.57
2023-05-14T23:10:31.262Z,14.15
2023-05-14T23:12:58.463Z,14.00
2023-05-14T23:15:25.755Z,14.80
2023-05-14T23:17:53.203Z,14.82
2023-05-14T23:20:20.473Z,14.80
2023-05-14T23:22:47.712Z,15.43
2023-05-14T23:25:14.864Z,13.85
2023-05-14T23:27:41.923Z,13.70
2023-05-14T23:30:09.226Z,14.55
2023-05-14T23:32:36.310Z,14.15
2023-05-14T23:35:03.523Z,14.15
2023-05-14T23:37:30.649Z,14.75
2023-05-14T23:39:57.830Z,15.40
2023-05-14T23:42:24.998Z,14.40
2023-05-14T23:44:52.114Z,15.35
2023-05-14T23:47:19.266Z,14.70
2023-05-14T23:49:46.406Z,16.85
2023-05-14T23:52:13.518Z,16.20
2023-05-14T23:54:40.558Z,15.02
2023-05-14T23:57:07.699Z,17.33
2023-05-14T23:59:34.751Z,16.05
